sensor_id;sensor_type;location;lat;lon;timestamp;P1;durP1;ratioP1;P2;durP2;ratioP2
49472;SDS011;67434;50.956;6.918;2023-07-29T00:01:49;1.03;;;0.73;;
49472;SDS011;67434;50.956;6.918;2023-07-29T00:04:14;1.40;;;0.80;;
49472;SDS011;67434;50.956;6.918;2023-07-29T00:06:40;1.95;;;0.60;;
49472;SDS011;67434;50.956;6.918;2023-07-29T00:09:05;1.07;;;0.67;;
49472;SDS011;67434;50.956;6.918;2023-07-29T00:11:31;3.38;;;0.70;;
49472;SDS011;67434;50.956;6.918;2023-07-29T00:14:00;2.47;;;0.98;;
49472;SDS011;67434;50.956;6.918;2023-07-29T00:16:25;4.53;;;0.80;;
49472;SDS011;67434;50.956;6.918;2023-07-29T00:18:51;3.63;;;1.15;;
49472;SDS011;67434;50.956;6.918;2023-07-29T00:21:16;2.78;;;0.88;;
49472;SDS011;67434;50.956;6.918;2023-07-29T00:23:41;1.10;;;0.80;;
49472;SDS011;67434;50.956;6.918;2023-07-29T00:26:07;0.70;;;0.50;;
49472;SDS011;67434;50.956;6.918;2023-07-29T00:28:32;1.45;;;0.77;;
49472;SDS011;67434;50.956;6.918;2023-07-29T00:30:57;4.00;;;0.93;;
49472;SDS011;67434;50.956;6.918;2023-07-29T00:33:23;3.60;;;0.95;;
49472;SDS011;67434;50.956;6.918;2023-07-29T00:35:48;1.17;;;1.02;;
49472;SDS011;67434;50.956;6.918;2023-07-29T00:38:13;1.80;;;0.60;;
49472;SDS011;67434;50.956;6.918;2023-07-29T00:40:39;2.23;;;0.90;;
49472;SDS011;67434;50.956;6.918;2023-07-29T00:43:04;1.30;;;0.70;;
49472;SDS011;67434;50.956;6.918;2023-07-29T00:45:29;1.60;;;0.90;;
49472;SDS011;67434;50.956;6.918;2023-07-29T00:47:55;2.58;;;0.95;;
49472;SDS011;67434;50.956;6.918;2023-07-29T00:50:20;4.65;;;1.00;;
49472;SDS011;67434;50.956;6.918;2023-07-29T00:52:46;7.22;;;1.00;;
49472;SDS011;67434;50.956;6.918;2023-07-29T00:55:11;1.53;;;0.97;;
49472;SDS011;67434;50.956;6.918;2023-07-29T00:57:37;1.55;;;1.00;;
49472;SDS011;67434;50.956;6.918;2023-07-29T01:00:02;2.65;;;1.10;;
49472;SDS011;67434;50.956;6.918;2023-07-29T01:02:29;2.65;;;1.10;;
49472;SDS011;67434;50.956;6.918;2023-07-29T01:04:58;2.03;;;0.95;;
49472;SDS011;67434;50.956;6.918;2023-07-29T01:10:07;1.63;;;1.10;;
49472;SDS011;67434;50.956;6.918;2023-07-29T01:12:44;2.08;;;1.10;;
49472;SDS011;67434;50.956;6.918;2023-07-29T01:17:43;1.23;;;0.98;;
49472;SDS011;67434;50.956;6.918;2023-07-29T01:20:13;2.58;;;1.15;;
49472;SDS011;67434;50.956;6.918;2023-07-29T01:22:38;4.18;;;1.33;;
49472;SDS011;67434;50.956;6.918;2023-07-29T01:25:05;2.78;;;1.60;;
49472;SDS011;67434;50.956;6.918;2023-07-29T01:27:30;1.75;;;1.30;;
49472;SDS011;67434;50.956;6.918;2023-07-29T01:29:56;4.88;;;1.50;;
49472;SDS011;67434;50.956;6.918;2023-07-29T01:35:00;2.75;;;1.60;;
49472;SDS011;67434;50.956;6.918;2023-07-29T01:37:30;1.88;;;1.20;;
49472;SDS011;67434;50.956;6.918;2023-07-29T01:39:57;3.15;;;1.25;;
49472;SDS011;67434;50.956;6.918;2023-07-29T01:42:24;1.30;;;1.20;;
49472;SDS011;67434;50.956;6.918;2023-07-29T01:44:49;3.15;;;1.50;;
49472;SDS011;67434;50.956;6.918;2023-07-29T01:47:15;2.97;;;1.73;;
49472;SDS011;67434;50.956;6.918;2023-07-29T01:49:41;3.17;;;1.60;;
49472;SDS011;67434;50.956;6.918;2023-07-29T01:52:06;3.53;;;1.60;;
49472;SDS011;67434;50.956;6.918;2023-07-29T01:54:31;1.67;;;1.10;;
49472;SDS011;67434;50.956;6.918;2023-07-29T01:56:57;2.10;;;1.27;;
49472;SDS011;67434;50.956;6.918;2023-07-29T01:59:22;5.47;;;1.50;;
49472;SDS011;67434;50.956;6.918;2023-07-29T02:01:47;2.05;;;1.50;;
49472;SDS011;67434;50.956;6.918;2023-07-29T02:04:14;18.83;;;2.33;;
49472;SDS011;67434;50.956;6.918;2023-07-29T02:06:39;4.85;;;2.22;;
49472;SDS011;67434;50.956;6.918;2023-07-29T02:09:04;3.15;;;2.03;;
49472;SDS011;67434;50.956;6.918;2023-07-29T02:11:30;7.07;;;2.05;;
49472;SDS011;67434;50.956;6.918;2023-07-29T02:13:55;4.50;;;1.88;;
49472;SDS011;67434;50.956;6.918;2023-07-29T02:16:21;3.72;;;1.75;;
49472;SDS011;67434;50.956;6.918;2023-07-29T02:18:47;5.47;;;1.98;;
49472;SDS011;67434;50.956;6.918;2023-07-29T02:21:12;3.80;;;1.80;;
49472;SDS011;67434;50.956;6.918;2023-07-29T02:23:37;2.47;;;1.23;;
49472;SDS011;67434;50.956;6.918;2023-07-29T02:26:02;5.40;;;1.17;;
49472;SDS011;67434;50.956;6.918;2023-07-29T02:28:27;3.93;;;1.30;;
49472;SDS011;67434;50.956;6.918;2023-07-29T02:33:37;3.03;;;2.10;;
49472;SDS011;67434;50.956;6.918;2023-07-29T02:36:02;1.77;;;1.20;;
49472;SDS011;67434;50.956;6.918;2023-07-29T02:38:27;2.78;;;1.15;;
49472;SDS011;67434;50.956;6.918;2023-07-29T02:40:53;2.30;;;1.10;;
49472;SDS011;67434;50.956;6.918;2023-07-29T02:43:18;2.33;;;1.00;;
49472;SDS011;67434;50.956;6.918;2023-07-29T02:45:43;2.00;;;1.10;;
49472;SDS011;67434;50.956;6.918;2023-07-29T02:48:08;2.87;;;1.30;;
49472;SDS011;67434;50.956;6.918;2023-07-29T02:50:34;1.93;;;1.10;;
49472;SDS011;67434;50.956;6.918;2023-07-29T02:52:59;1.67;;;1.20;;
49472;SDS011;67434;50.956;6.918;2023-07-29T02:55:26;2.60;;;1.10;;
49472;SDS011;67434;50.956;6.918;2023-07-29T02:57:51;2.15;;;1.20;;
49472;SDS011;67434;50.956;6.918;2023-07-29T03:00:17;4.93;;;1.00;;
49472;SDS011;67434;50.956;6.918;2023-07-29T03:02:42;1.52;;;1.02;;
49472;SDS011;67434;50.956;6.918;2023-07-29T03:05:07;1.70;;;0.70;;
49472;SDS011;67434;50.956;6.918;2023-07-29T03:07:33;2.78;;;1.15;;
49472;SDS011;67434;50.956;6.918;2023-07-29T03:09:58;3.67;;;1.15;;
49472;SDS011;67434;50.956;6.918;2023-07-29T03:12:23;3.33;;;1.60;;
49472;SDS011;67434;50.956;6.918;2023-07-29T03:14:48;2.88;;;0.93;;
49472;SDS011;67434;50.956;6.918;2023-07-29T03:17:14;2.53;;;0.80;;
49472;SDS011;67434;50.956;6.918;2023-07-29T03:19:39;1.23;;;0.67;;
49472;SDS011;67434;50.956;6.918;2023-07-29T03:22:04;0.73;;;0.50;;
49472;SDS011;67434;50.956;6.918;2023-07-29T03:24:29;4.15;;;0.60;;
49472;SDS011;67434;50.956;6.918;2023-07-29T03:26:55;1.90;;;1.03;;
49472;SDS011;67434;50.956;6.918;2023-07-29T03:29:20;1.87;;;0.70;;
49472;SDS011;67434;50.956;6.918;2023-07-29T03:31:45;4.07;;;0.90;;
49472;SDS011;67434;50.956;6.918;2023-07-29T03:34:10;1.97;;;0.60;;
49472;SDS011;67434;50.956;6.918;2023-07-29T03:36:37;1.75;;;0.52;;
49472;SDS011;67434;50.956;6.918;2023-07-29T03:39:02;1.88;;;1.20;;
49472;SDS011;67434;50.956;6.918;2023-07-29T03:41:28;2.45;;;0.80;;
49472;SDS011;67434;50.956;6.918;2023-07-29T03:43:54;2.80;;;0.80;;
49472;SDS011;67434;50.956;6.918;2023-07-29T03:46:19;1.05;;;0.50;;
49472;SDS011;67434;50.956;6.918;2023-07-29T03:48:47;3.35;;;0.60;;
49472;SDS011;67434;50.956;6.918;2023-07-29T03:51:12;3.10;;;0.88;;
49472;SDS011;67434;50.956;6.918;2023-07-29T03:53:38;1.70;;;0.65;;
49472;SDS011;67434;50.956;6.918;2023-07-29T03:56:03;2.45;;;1.02;;
49472;SDS011;67434;50.956;6.918;2023-07-29T03:58:28;3.97;;;0.90;;
49472;SDS011;67434;50.956;6.918;2023-07-29T04:00:54;3.15;;;0.65;;
49472;SDS011;67434;50.956;6.918;2023-07-29T04:03:19;1.55;;;0.70;;
49472;SDS011;67434;50.956;6.918;2023-07-29T04:05:44;2.67;;;0.90;;
49472;SDS011;67434;50.956;6.918;2023-07-29T04:08:09;1.50;;;1.00;;
49472;SDS011;67434;50.956;6.918;2023-07-29T04:10:35;1.58;;;0.70;;
49472;SDS011;67434;50.956;6.918;2023-07-29T04:13:00;2.72;;;0.70;;
49472;SDS011;67434;50.956;6.918;2023-07-29T04:15:25;6.05;;;1.10;;
49472;SDS011;67434;50.956;6.918;2023-07-29T04:17:51;2.03;;;0.80;;
49472;SDS011;67434;50.956;6.918;2023-07-29T04:20:18;0.93;;;0.73;;
49472;SDS011;67434;50.956;6.918;2023-07-29T04:22:43;2.10;;;0.90;;
49472;SDS011;67434;50.956;6.918;2023-07-29T04:25:08;1.77;;;0.90;;
49472;SDS011;67434;50.956;6.918;2023-07-29T04:27:34;2.10;;;0.93;;
49472;SDS011;67434;50.956;6.918;2023-07-29T04:29:59;3.50;;;1.10;;
49472;SDS011;67434;50.956;6.918;2023-07-29T04:32:24;2.47;;;1.20;;
49472;SDS011;67434;50.956;6.918;2023-07-29T04:34:50;1.63;;;0.90;;
49472;SDS011;67434;50.956;6.918;2023-07-29T04:37:16;2.45;;;1.15;;
49472;SDS011;67434;50.956;6.918;2023-07-29T04:39:41;2.20;;;1.30;;
49472;SDS011;67434;50.956;6.918;2023-07-29T04:42:06;1.87;;;1.10;;
49472;SDS011;67434;50.956;6.918;2023-07-29T04:44:31;1.85;;;1.20;;
49472;SDS011;67434;50.956;6.918;2023-07-29T04:46:56;1.40;;;1.02;;
49472;SDS011;67434;50.956;6.918;2023-07-29T04:49:22;3.72;;;1.23;;
49472;SDS011;67434;50.956;6.918;2023-07-29T04:51:47;3.37;;;1.03;;
49472;SDS011;67434;50.956;6.918;2023-07-29T04:54:12;1.48;;;1.33;;
49472;SDS011;67434;50.956;6.918;2023-07-29T04:56:38;1.70;;;1.02;;
49472;SDS011;67434;50.956;6.918;2023-07-29T04:59:03;3.72;;;1.35;;
49472;SDS011;67434;50.956;6.918;2023-07-29T05:01:28;5.20;;;1.60;;
49472;SDS011;67434;50.956;6.918;2023-07-29T05:03:54;3.67;;;2.33;;
49472;SDS011;67434;50.956;6.918;2023-07-29T05:06:19;2.55;;;1.50;;
49472;SDS011;67434;50.956;6.918;2023-07-29T05:08:44;2.33;;;1.80;;
49472;SDS011;67434;50.956;6.918;2023-07-29T05:11:09;3.93;;;1.50;;
49472;SDS011;67434;50.956;6.918;2023-07-29T05:13:35;1.90;;;1.60;;
49472;SDS011;67434;50.956;6.918;2023-07-29T05:16:00;2.08;;;1.42;;
49472;SDS011;67434;50.956;6.918;2023-07-29T05:18:25;2.17;;;1.45;;
49472;SDS011;67434;50.956;6.918;2023-07-29T05:20:50;1.90;;;1.70;;
49472;SDS011;67434;50.956;6.918;2023-07-29T05:23:16;4.10;;;1.80;;
49472;SDS011;67434;50.956;6.918;2023-07-29T05:25:41;4.18;;;1.55;;
49472;SDS011;67434;50.956;6.918;2023-07-29T05:28:06;1.70;;;1.45;;
49472;SDS011;67434;50.956;6.918;2023-07-29T05:30:32;2.10;;;1.90;;
49472;SDS011;67434;50.956;6.918;2023-07-29T05:32:58;6.63;;;1.90;;
49472;SDS011;67434;50.956;6.918;2023-07-29T05:35:24;4.07;;;2.00;;
49472;SDS011;67434;50.956;6.918;2023-07-29T05:37:49;4.70;;;1.95;;
49472;SDS011;67434;50.956;6.918;2023-07-29T05:40:15;2.47;;;1.73;;
49472;SDS011;67434;50.956;6.918;2023-07-29T05:42:40;4.73;;;1.80;;
49472;SDS011;67434;50.956;6.918;2023-07-29T05:45:05;5.32;;;1.83;;
49472;SDS011;67434;50.956;6.918;2023-07-29T05:47:31;4.18;;;1.90;;
49472;SDS011;67434;50.956;6.918;2023-07-29T05:49:56;2.97;;;1.88;;
49472;SDS011;67434;50.956;6.918;2023-07-29T05:52:21;1.90;;;1.70;;
49472;SDS011;67434;50.956;6.918;2023-07-29T05:54:47;2.53;;;1.92;;
49472;SDS011;67434;50.956;6.918;2023-07-29T05:57:13;2.00;;;1.67;;
49472;SDS011;67434;50.956;6.918;2023-07-29T05:59:38;3.67;;;1.55;;
49472;SDS011;67434;50.956;6.918;2023-07-29T06:02:04;2.00;;;1.50;;
49472;SDS011;67434;50.956;6.918;2023-07-29T06:04:29;3.50;;;2.00;;
49472;SDS011;67434;50.956;6.918;2023-07-29T06:06:54;5.18;;;2.67;;
49472;SDS011;67434;50.956;6.918;2023-07-29T06:09:21;2.88;;;2.35;;
49472;SDS011;67434;50.956;6.918;2023-07-29T06:11:46;6.53;;;2.08;;
49472;SDS011;67434;50.956;6.918;2023-07-29T06:14:11;3.45;;;2.75;;
49472;SDS011;67434;50.956;6.918;2023-07-29T06:16:37;2.10;;;1.40;;
49472;SDS011;67434;50.956;6.918;2023-07-29T06:19:02;3.23;;;1.40;;
49472;SDS011;67434;50.956;6.918;2023-07-29T06:21:27;3.70;;;1.60;;
49472;SDS011;67434;50.956;6.918;2023-07-29T06:23:52;4.63;;;1.93;;
49472;SDS011;67434;50.956;6.918;2023-07-29T06:26:18;8.52;;;3.35;;
49472;SDS011;67434;50.956;6.918;2023-07-29T06:28:43;3.88;;;1.50;;
49472;SDS011;67434;50.956;6.918;2023-07-29T06:31:08;4.45;;;1.35;;
49472;SDS011;67434;50.956;6.918;2023-07-29T06:33:34;6.63;;;1.92;;
49472;SDS011;67434;50.956;6.918;2023-07-29T06:35:59;2.35;;;1.52;;
49472;SDS011;67434;50.956;6.918;2023-07-29T06:38:24;4.60;;;1.52;;
49472;SDS011;67434;50.956;6.918;2023-07-29T06:40:49;1.83;;;1.53;;
49472;SDS011;67434;50.956;6.918;2023-07-29T06:43:15;2.80;;;1.40;;
49472;SDS011;67434;50.956;6.918;2023-07-29T06:45:41;2.05;;;1.58;;
49472;SDS011;67434;50.956;6.918;2023-07-29T06:48:07;2.65;;;1.00;;
49472;SDS011;67434;50.956;6.918;2023-07-29T06:50:32;2.05;;;1.08;;
49472;SDS011;67434;50.956;6.918;2023-07-29T06:52:57;2.23;;;1.00;;
49472;SDS011;67434;50.956;6.918;2023-07-29T06:55:22;2.60;;;1.07;;
49472;SDS011;67434;50.956;6.918;2023-07-29T06:57:48;1.95;;;0.90;;
49472;SDS011;67434;50.956;6.918;2023-07-29T07:00:13;1.35;;;0.80;;
49472;SDS011;67434;50.956;6.918;2023-07-29T07:02:38;2.42;;;1.15;;
49472;SDS011;67434;50.956;6.918;2023-07-29T07:05:04;1.00;;;0.60;;
49472;SDS011;67434;50.956;6.918;2023-07-29T07:07:29;2.08;;;0.90;;
49472;SDS011;67434;50.956;6.918;2023-07-29T07:09:55;2.10;;;0.68;;
49472;SDS011;67434;50.956;6.918;2023-07-29T07:12:20;1.53;;;0.90;;
49472;SDS011;67434;50.956;6.918;2023-07-29T07:14:45;3.37;;;1.33;;
49472;SDS011;67434;50.956;6.918;2023-07-29T07:17:11;2.72;;;1.00;;
49472;SDS011;67434;50.956;6.918;2023-07-29T07:19:36;2.50;;;0.97;;
49472;SDS011;67434;50.956;6.918;2023-07-29T07:22:02;3.17;;;1.50;;
49472;SDS011;67434;50.956;6.918;2023-07-29T07:24:27;0.95;;;0.65;;
49472;SDS011;67434;50.956;6.918;2023-07-29T07:26:52;2.05;;;0.80;;
49472;SDS011;67434;50.956;6.918;2023-07-29T07:29:18;1.83;;;1.33;;
49472;SDS011;67434;50.956;6.918;2023-07-29T07:31:47;3.17;;;1.48;;
49472;SDS011;67434;50.956;6.918;2023-07-29T07:34:14;2.00;;;1.10;;
49472;SDS011;67434;50.956;6.918;2023-07-29T07:36:39;2.85;;;1.67;;
49472;SDS011;67434;50.956;6.918;2023-07-29T07:39:05;1.75;;;1.20;;
49472;SDS011;67434;50.956;6.918;2023-07-29T07:41:30;3.60;;;1.10;;
49472;SDS011;67434;50.956;6.918;2023-07-29T07:43:55;3.38;;;1.30;;
49472;SDS011;67434;50.956;6.918;2023-07-29T07:46:21;1.92;;;1.10;;
49472;SDS011;67434;50.956;6.918;2023-07-29T07:48:46;3.08;;;0.98;;
49472;SDS011;67434;50.956;6.918;2023-07-29T07:51:12;2.63;;;0.90;;
49472;SDS011;67434;50.956;6.918;2023-07-29T07:53:37;1.95;;;0.70;;
49472;SDS011;67434;50.956;6.918;2023-07-29T07:56:03;5.38;;;1.25;;
49472;SDS011;67434;50.956;6.918;2023-07-29T07:58:28;1.02;;;0.63;;
49472;SDS011;67434;50.956;6.918;2023-07-29T08:01:00;1.70;;;0.73;;
49472;SDS011;67434;50.956;6.918;2023-07-29T08:03:26;3.80;;;1.20;;
49472;SDS011;67434;50.956;6.918;2023-07-29T08:05:51;2.05;;;1.15;;
49472;SDS011;67434;50.956;6.918;2023-07-29T08:08:16;2.03;;;0.93;;
49472;SDS011;67434;50.956;6.918;2023-07-29T08:10:41;1.10;;;0.93;;
49472;SDS011;67434;50.956;6.918;2023-07-29T08:13:07;1.00;;;0.60;;
49472;SDS011;67434;50.956;6.918;2023-07-29T08:15:32;4.22;;;0.85;;
49472;SDS011;67434;50.956;6.918;2023-07-29T08:17:58;1.60;;;0.80;;
49472;SDS011;67434;50.956;6.918;2023-07-29T08:20:23;1.13;;;0.65;;
49472;SDS011;67434;50.956;6.918;2023-07-29T08:22:48;2.20;;;1.37;;
49472;SDS011;67434;50.956;6.918;2023-07-29T08:25:14;1.20;;;1.10;;
49472;SDS011;67434;50.956;6.918;2023-07-29T08:27:39;1.73;;;0.90;;
49472;SDS011;67434;50.956;6.918;2023-07-29T08:30:04;1.55;;;0.80;;
49472;SDS011;67434;50.956;6.918;2023-07-29T08:32:30;1.77;;;1.17;;
49472;SDS011;67434;50.956;6.918;2023-07-29T08:34:55;3.70;;;0.80;;
49472;SDS011;67434;50.956;6.918;2023-07-29T08:37:20;3.77;;;1.10;;
49472;SDS011;67434;50.956;6.918;2023-07-29T08:39:46;2.42;;;0.93;;
49472;SDS011;67434;50.956;6.918;2023-07-29T08:42:12;1.92;;;1.00;;
49472;SDS011;67434;50.956;6.918;2023-07-29T08:44:41;2.05;;;0.70;;
49472;SDS011;67434;50.956;6.918;2023-07-29T08:47:07;1.52;;;0.70;;
49472;SDS011;67434;50.956;6.918;2023-07-29T08:49:32;3.63;;;0.80;;
49472;SDS011;67434;50.956;6.918;2023-07-29T08:51:58;3.72;;;2.08;;
49472;SDS011;67434;50.956;6.918;2023-07-29T08:54:24;4.45;;;1.80;;
49472;SDS011;67434;50.956;6.918;2023-07-29T08:56:50;2.03;;;0.80;;
49472;SDS011;67434;50.956;6.918;2023-07-29T08:59:15;1.30;;;0.50;;
49472;SDS011;67434;50.956;6.918;2023-07-29T09:01:42;2.17;;;0.55;;
49472;SDS011;67434;50.956;6.918;2023-07-29T09:04:07;0.88;;;0.50;;
49472;SDS011;67434;50.956;6.918;2023-07-29T09:06:33;0.77;;;0.50;;
49472;SDS011;67434;50.956;6.918;2023-07-29T09:09:00;2.05;;;0.60;;
49472;SDS011;67434;50.956;6.918;2023-07-29T09:11:25;0.85;;;0.60;;
49472;SDS011;67434;50.956;6.918;2023-07-29T09:13:51;3.33;;;0.98;;
49472;SDS011;67434;50.956;6.918;2023-07-29T09:16:17;0.50;;;0.40;;
49472;SDS011;67434;50.956;6.918;2023-07-29T09:18:43;4.05;;;1.02;;
49472;SDS011;67434;50.956;6.918;2023-07-29T09:21:08;1.10;;;0.52;;
49472;SDS011;67434;50.956;6.918;2023-07-29T09:23:41;1.33;;;0.38;;
49472;SDS011;67434;50.956;6.918;2023-07-29T09:26:06;0.70;;;0.40;;
49472;SDS011;67434;50.956;6.918;2023-07-29T09:28:33;4.85;;;0.50;;
49472;SDS011;67434;50.956;6.918;2023-07-29T09:30:59;2.15;;;0.40;;
49472;SDS011;67434;50.956;6.918;2023-07-29T09:33:28;0.90;;;0.43;;
49472;SDS011;67434;50.956;6.918;2023-07-29T09:35:53;1.27;;;0.50;;
49472;SDS011;67434;50.956;6.918;2023-07-29T09:38:25;4.47;;;0.50;;
49472;SDS011;67434;50.956;6.918;2023-07-29T09:40:51;0.75;;;0.50;;
49472;SDS011;67434;50.956;6.918;2023-07-29T09:43:19;1.13;;;0.50;;
49472;SDS011;67434;50.956;6.918;2023-07-29T09:45:49;1.40;;;0.68;;
49472;SDS011;67434;50.956;6.918;2023-07-29T09:48:16;0.65;;;0.50;;
49472;SDS011;67434;50.956;6.918;2023-07-29T09:50:44;5.30;;;1.50;;
49472;SDS011;67434;50.956;6.918;2023-07-29T09:53:12;1.45;;;0.57;;
49472;SDS011;67434;50.956;6.918;2023-07-29T09:55:37;1.38;;;0.82;;
49472;SDS011;67434;50.956;6.918;2023-07-29T09:58:02;1.07;;;0.77;;
49472;SDS011;67434;50.956;6.918;2023-07-29T10:00:32;2.60;;;0.60;;
49472;SDS011;67434;50.956;6.918;2023-07-29T10:02:58;0.90;;;0.68;;
49472;SDS011;67434;50.956;6.918;2023-07-29T10:05:25;2.65;;;0.98;;
49472;SDS011;67434;50.956;6.918;2023-07-29T10:07:50;1.80;;;0.85;;
49472;SDS011;67434;50.956;6.918;2023-07-29T10:10:16;1.52;;;0.60;;
49472;SDS011;67434;50.956;6.918;2023-07-29T10:12:42;1.42;;;0.77;;
49472;SDS011;67434;50.956;6.918;2023-07-29T10:15:08;1.20;;;0.77;;
49472;SDS011;67434;50.956;6.918;2023-07-29T10:17:34;3.17;;;0.80;;
49472;SDS011;67434;50.956;6.918;2023-07-29T10:19:59;2.45;;;0.90;;
49472;SDS011;67434;50.956;6.918;2023-07-29T10:22:27;3.50;;;1.30;;
49472;SDS011;67434;50.956;6.918;2023-07-29T10:24:53;1.70;;;0.57;;
49472;SDS011;67434;50.956;6.918;2023-07-29T10:27:19;2.50;;;1.05;;
49472;SDS011;67434;50.956;6.918;2023-07-29T10:29:46;4.35;;;1.00;;
49472;SDS011;67434;50.956;6.918;2023-07-29T10:32:12;1.40;;;0.85;;
49472;SDS011;67434;50.956;6.918;2023-07-29T10:34:38;2.60;;;0.90;;
49472;SDS011;67434;50.956;6.918;2023-07-29T10:37:03;5.07;;;1.35;;
49472;SDS011;67434;50.956;6.918;2023-07-29T10:39:37;1.33;;;0.60;;
49472;SDS011;67434;50.956;6.918;2023-07-29T10:42:04;1.27;;;0.70;;
49472;SDS011;67434;50.956;6.918;2023-07-29T10:47:28;3.90;;;0.80;;
49472;SDS011;67434;50.956;6.918;2023-07-29T10:49:54;2.58;;;0.40;;
49472;SDS011;67434;50.956;6.918;2023-07-29T10:55:02;1.45;;;0.90;;
49472;SDS011;67434;50.956;6.918;2023-07-29T10:57:38;2.97;;;0.70;;
49472;SDS011;67434;50.956;6.918;2023-07-29T11:00:05;1.25;;;0.63;;
49472;SDS011;67434;50.956;6.918;2023-07-29T11:02:32;7.95;;;1.13;;
49472;SDS011;67434;50.956;6.918;2023-07-29T11:04:58;3.88;;;0.95;;
49472;SDS011;67434;50.956;6.918;2023-07-29T11:07:25;1.10;;;0.80;;
49472;SDS011;67434;50.956;6.918;2023-07-29T11:09:57;1.38;;;0.88;;
49472;SDS011;67434;50.956;6.918;2023-07-29T11:15:04;1.90;;;0.80;;
49472;SDS011;67434;50.956;6.918;2023-07-29T11:17:33;1.60;;;1.00;;
49472;SDS011;67434;50.956;6.918;2023-07-29T11:20:01;2.75;;;1.00;;
49472;SDS011;67434;50.956;6.918;2023-07-29T11:22:28;1.73;;;0.60;;
49472;SDS011;67434;50.956;6.918;2023-07-29T11:24:53;1.77;;;0.95;;
49472;SDS011;67434;50.956;6.918;2023-07-29T11:27:19;2.15;;;0.95;;
49472;SDS011;67434;50.956;6.918;2023-07-29T11:29:44;1.97;;;1.13;;
49472;SDS011;67434;50.956;6.918;2023-07-29T11:32:09;1.57;;;0.90;;
49472;SDS011;67434;50.956;6.918;2023-07-29T11:34:34;1.77;;;0.77;;
49472;SDS011;67434;50.956;6.918;2023-07-29T11:37:00;2.08;;;0.70;;
49472;SDS011;67434;50.956;6.918;2023-07-29T11:39:25;4.37;;;1.20;;
49472;SDS011;67434;50.956;6.918;2023-07-29T11:41:50;3.10;;;1.10;;
49472;SDS011;67434;50.956;6.918;2023-07-29T11:44:18;2.20;;;1.03;;
49472;SDS011;67434;50.956;6.918;2023-07-29T11:46:44;1.52;;;0.80;;
49472;SDS011;67434;50.956;6.918;2023-07-29T11:49:09;2.75;;;1.23;;
49472;SDS011;67434;50.956;6.918;2023-07-29T11:51:34;3.67;;;1.55;;
49472;SDS011;67434;50.956;6.918;2023-07-29T11:54:00;2.08;;;0.98;;
49472;SDS011;67434;50.956;6.918;2023-07-29T11:56:26;2.13;;;1.10;;
49472;SDS011;67434;50.956;6.918;2023-07-29T11:58:51;1.27;;;0.77;;
49472;SDS011;67434;50.956;6.918;2023-07-29T12:01:16;3.00;;;0.65;;
49472;SDS011;67434;50.956;6.918;2023-07-29T12:03:42;1.30;;;0.80;;
49472;SDS011;67434;50.956;6.918;2023-07-29T12:06:08;1.10;;;0.70;;
49472;SDS011;67434;50.956;6.918;2023-07-29T12:08:33;1.67;;;0.60;;
49472;SDS011;67434;50.956;6.918;2023-07-29T12:10:58;1.45;;;0.85;;
49472;SDS011;67434;50.956;6.918;2023-07-29T12:13:24;2.42;;;0.80;;
49472;SDS011;67434;50.956;6.918;2023-07-29T12:15:50;2.28;;;0.60;;
49472;SDS011;67434;50.956;6.918;2023-07-29T12:18:15;0.97;;;0.70;;
49472;SDS011;67434;50.956;6.918;2023-07-29T12:20:40;1.10;;;0.70;;
49472;SDS011;67434;50.956;6.918;2023-07-29T12:23:06;2.33;;;0.80;;
49472;SDS011;67434;50.956;6.918;2023-07-29T12:25:33;1.00;;;0.50;;
49472;SDS011;67434;50.956;6.918;2023-07-29T12:28:04;3.03;;;0.50;;
49472;SDS011;67434;50.956;6.918;2023-07-29T12:30:30;2.17;;;0.65;;
49472;SDS011;67434;50.956;6.918;2023-07-29T12:32:55;1.03;;;0.60;;
49472;SDS011;67434;50.956;6.918;2023-07-29T12:35:20;0.70;;;0.50;;
49472;SDS011;67434;50.956;6.918;2023-07-29T12:37:46;1.27;;;0.70;;
49472;SDS011;67434;50.956;6.918;2023-07-29T12:40:24;1.75;;;0.57;;
49472;SDS011;67434;50.956;6.918;2023-07-29T12:42:53;4.20;;;0.80;;
49472;SDS011;67434;50.956;6.918;2023-07-29T12:45:18;2.38;;;0.60;;
49472;SDS011;67434;50.956;6.918;2023-07-29T12:47:43;1.35;;;0.50;;
49472;SDS011;67434;50.956;6.918;2023-07-29T12:50:09;1.83;;;0.68;;
49472;SDS011;67434;50.956;6.918;2023-07-29T12:52:34;0.82;;;0.52;;
49472;SDS011;67434;50.956;6.918;2023-07-29T12:55:00;0.95;;;0.55;;
49472;SDS011;67434;50.956;6.918;2023-07-29T12:57:25;1.23;;;0.60;;
49472;SDS011;67434;50.956;6.918;2023-07-29T12:59:50;0.70;;;0.40;;
49472;SDS011;67434;50.956;6.918;2023-07-29T13:02:15;1.27;;;0.47;;
49472;SDS011;67434;50.956;6.918;2023-07-29T13:04:41;3.50;;;1.43;;
49472;SDS011;67434;50.956;6.918;2023-07-29T13:07:06;3.17;;;1.03;;
49472;SDS011;67434;50.956;6.918;2023-07-29T13:09:31;1.45;;;0.70;;
49472;SDS011;67434;50.956;6.918;2023-07-29T13:11:57;2.72;;;0.73;;
49472;SDS011;67434;50.956;6.918;2023-07-29T13:14:22;1.65;;;0.90;;
49472;SDS011;67434;50.956;6.918;2023-07-29T13:16:47;4.63;;;0.80;;
49472;SDS011;67434;50.956;6.918;2023-07-29T13:19:13;2.73;;;0.97;;
49472;SDS011;67434;50.956;6.918;2023-07-29T13:21:38;1.63;;;0.87;;
49472;SDS011;67434;50.956;6.918;2023-07-29T13:24:03;3.43;;;1.27;;
49472;SDS011;67434;50.956;6.918;2023-07-29T13:26:28;1.33;;;0.80;;
49472;SDS011;67434;50.956;6.918;2023-07-29T13:28:56;2.88;;;1.20;;
49472;SDS011;67434;50.956;6.918;2023-07-29T13:31:21;1.50;;;0.70;;
49472;SDS011;67434;50.956;6.918;2023-07-29T13:33:46;2.10;;;1.30;;
49472;SDS011;67434;50.956;6.918;2023-07-29T13:36:11;2.63;;;0.70;;
49472;SDS011;67434;50.956;6.918;2023-07-29T13:38:37;2.33;;;0.70;;
49472;SDS011;67434;50.956;6.918;2023-07-29T13:41:02;7.00;;;0.90;;
49472;SDS011;67434;50.956;6.918;2023-07-29T13:43:27;1.48;;;0.80;;
49472;SDS011;67434;50.956;6.918;2023-07-29T13:45:53;3.00;;;0.90;;
49472;SDS011;67434;50.956;6.918;2023-07-29T13:48:18;2.80;;;0.88;;
49472;SDS011;67434;50.956;6.918;2023-07-29T13:50:44;1.55;;;0.80;;
49472;SDS011;67434;50.956;6.918;2023-07-29T13:53:10;2.03;;;1.02;;
49472;SDS011;67434;50.956;6.918;2023-07-29T13:55:36;3.45;;;0.90;;
49472;SDS011;67434;50.956;6.918;2023-07-29T13:58:01;2.93;;;1.17;;
49472;SDS011;67434;50.956;6.918;2023-07-29T14:00:26;2.63;;;1.00;;
49472;SDS011;67434;50.956;6.918;2023-07-29T14:02:51;2.20;;;0.93;;
49472;SDS011;67434;50.956;6.918;2023-07-29T14:05:17;3.23;;;1.03;;
49472;SDS011;67434;50.956;6.918;2023-07-29T14:07:42;1.92;;;1.08;;
49472;SDS011;67434;50.956;6.918;2023-07-29T14:10:07;3.43;;;1.40;;
49472;SDS011;67434;50.956;6.918;2023-07-29T14:12:33;3.92;;;2.47;;
49472;SDS011;67434;50.956;6.918;2023-07-29T14:14:59;2.67;;;1.15;;
49472;SDS011;67434;50.956;6.918;2023-07-29T14:17:24;3.17;;;1.58;;
49472;SDS011;67434;50.956;6.918;2023-07-29T14:19:49;2.57;;;1.83;;
49472;SDS011;67434;50.956;6.918;2023-07-29T14:22:14;1.63;;;0.98;;
49472;SDS011;67434;50.956;6.918;2023-07-29T14:24:40;1.90;;;1.33;;
49472;SDS011;67434;50.956;6.918;2023-07-29T14:27:05;2.63;;;1.87;;
49472;SDS011;67434;50.956;6.918;2023-07-29T14:29:31;3.72;;;1.55;;
49472;SDS011;67434;50.956;6.918;2023-07-29T14:31:56;2.22;;;1.45;;
49472;SDS011;67434;50.956;6.918;2023-07-29T14:34:22;3.22;;;1.15;;
49472;SDS011;67434;50.956;6.918;2023-07-29T14:36:47;2.13;;;1.10;;
49472;SDS011;67434;50.956;6.918;2023-07-29T14:39:12;2.23;;;1.00;;
49472;SDS011;67434;50.956;6.918;2023-07-29T14:41:38;3.42;;;1.05;;
49472;SDS011;67434;50.956;6.918;2023-07-29T14:44:03;1.67;;;1.00;;
49472;SDS011;67434;50.956;6.918;2023-07-29T14:46:28;3.40;;;1.02;;
49472;SDS011;67434;50.956;6.918;2023-07-29T14:48:54;2.27;;;1.10;;
49472;SDS011;67434;50.956;6.918;2023-07-29T14:51:19;3.00;;;0.90;;
49472;SDS011;67434;50.956;6.918;2023-07-29T14:53:44;1.40;;;0.95;;
49472;SDS011;67434;50.956;6.918;2023-07-29T14:56:10;1.88;;;1.23;;
49472;SDS011;67434;50.956;6.918;2023-07-29T14:58:35;1.25;;;0.90;;